createdAt,value
2022-11-12T00:01:04.095Z,12.16
2022-11-12T00:03:30.607Z,12.18
2022-11-12T00:05:57.118Z,12.20
2022-11-12T00:08:23.940Z,12.20
2022-11-12T00:10:50.681Z,12.20
2022-11-12T00:13:17.283Z,12.20
2022-11-12T00:15:46.460Z,12.20
2022-11-12T00:18:13.156Z,12.20
2022-11-12T00:20:39.801Z,12.20
2022-11-12T00:23:06.346Z,12.12
2022-11-12T00:25:32.911Z,12.10
2022-11-12T00:28:09.705Z,12.10
2022-11-12T00:30:39.694Z,12.10
2022-11-12T00:33:07.099Z,12.10
2022-11-12T00:35:34.634Z,12.10
2022-11-12T00:38:01.630Z,12.10
2022-11-12T00:40:28.860Z,12.10
2022-11-12T00:42:55.839Z,12.10
2022-11-12T00:45:22.850Z,12.10
2022-11-12T00:47:49.483Z,12.10
2022-11-12T00:50:16.579Z,12.10
2022-11-12T00:52:43.369Z,12.12
2022-11-12T00:55:10.564Z,12.10
2022-11-12T00:57:37.377Z,12.10
2022-11-12T01:00:07.102Z,12.10
2022-11-12T01:02:40.669Z,12.10
2022-11-12T01:05:09.962Z,12.10
2022-11-12T01:07:36.520Z,12.10
2022-11-12T01:10:04.497Z,12.10
2022-11-12T01:12:32.201Z,12.10
2022-11-12T01:14:59.591Z,12.10
2022-11-12T01:17:26.090Z,12.10
2022-11-12T01:19:52.759Z,12.10
2022-11-12T01:22:19.261Z,12.10
2022-11-12T01:24:45.710Z,12.10
2022-11-12T01:27:12.330Z,12.10
2022-11-12T01:29:38.843Z,12.10
2022-11-12T01:32:05.538Z,12.10
2022-11-12T01:34:32.805Z,12.10
2022-11-12T01:36:59.317Z,12.10
2022-11-12T01:39:25.747Z,12.10
2022-11-12T01:41:52.289Z,12.10
2022-11-12T01:44:25.118Z,12.10
2022-11-12T01:47:18.369Z,12.10
2022-11-12T01:50:13.142Z,12.10
2022-11-12T01:52:50.665Z,12.10
2022-11-12T01:55:26.718Z,12.10
2022-11-12T01:58:09.756Z,12.10
2022-11-12T02:00:36.949Z,12.10
2022-11-12T02:03:12.069Z,12.10
2022-11-12T02:05:41.840Z,12.10
2022-11-12T02:08:12.377Z,12.10
2022-11-12T02:10:40.012Z,12.10
2022-11-12T02:13:26.702Z,12.10
2022-11-12T02:15:53.392Z,12.10
2022-11-12T02:18:19.938Z,12.10
2022-11-12T02:20:57.621Z,12.10
2022-11-12T02:23:24.370Z,12.10
2022-11-12T02:25:50.858Z,12.10
2022-11-12T02:28:17.847Z,12.10
2022-11-12T02:30:49.630Z,12.10
2022-11-12T02:33:16.689Z,12.10
2022-11-12T02:35:43.223Z,12.10
2022-11-12T02:38:10.432Z,12.10
2022-11-12T02:40:36.965Z,12.10
2022-11-12T02:43:03.777Z,12.10
2022-11-12T02:45:31.594Z,12.10
2022-11-12T02:47:58.060Z,12.14
2022-11-12T02:50:24.652Z,12.18
2022-11-12T02:52:51.183Z,12.20
2022-11-12T02:55:17.949Z,12.20
2022-11-12T02:57:44.508Z,12.20
2022-11-12T03:00:13.008Z,12.20
2022-11-12T03:02:42.147Z,12.20
2022-11-12T03:05:11.129Z,12.20
2022-11-12T03:07:38.458Z,12.20
2022-11-12T03:10:06.260Z,12.22
2022-11-12T03:12:33.317Z,12.30
2022-11-12T03:14:59.823Z,12.28
2022-11-12T03:17:26.317Z,12.30
2022-11-12T03:19:52.763Z,12.30
2022-11-12T03:22:19.257Z,12.30
2022-11-12T03:24:45.720Z,12.30
2022-11-12T03:27:12.251Z,12.30
2022-11-12T03:29:38.740Z,12.30
2022-11-12T03:32:05.265Z,12.30
2022-11-12T03:34:31.794Z,12.30
2022-11-12T03:36:58.280Z,12.30
2022-11-12T03:39:24.788Z,12.30
2022-11-12T03:41:51.247Z,12.30
2022-11-12T03:44:17.718Z,12.30
2022-11-12T03:46:44.560Z,12.30
2022-11-12T03:49:11.209Z,12.30
2022-11-12T03:51:37.686Z,12.30
2022-11-12T03:54:04.262Z,12.30
2022-11-12T03:56:30.813Z,12.30
2022-11-12T03:58:57.265Z,12.30
2022-11-12T04:01:24.134Z,12.30
2022-11-12T04:03:50.665Z,12.30
2022-11-12T04:06:36.278Z,12.30
2022-11-12T04:09:03.010Z,12.30
2022-11-12T04:11:29.624Z,12.30
2022-11-12T04:13:56.099Z,12.30
2022-11-12T04:16:42.076Z,12.30
2022-11-12T04:19:31.567Z,12.26
2022-11-12T04:22:06.435Z,12.20
2022-11-12T04:24:56.457Z,12.28
2022-11-12T04:27:32.681Z,12.20
2022-11-12T04:30:18.518Z,12.20
2022-11-12T04:32:56.243Z,12.20
2022-11-12T04:35:25.901Z,12.22
2022-11-12T04:37:53.054Z,12.20
2022-11-12T04:40:45.396Z,12.20
2022-11-12T04:43:35.732Z,12.20
2022-11-12T04:46:04.318Z,12.20
2022-11-12T04:48:32.485Z,12.22
2022-11-12T04:51:03.179Z,12.20
2022-11-12T04:53:30.644Z,12.20
2022-11-12T04:55:58.789Z,12.20
2022-11-12T04:58:25.659Z,12.20
2022-11-12T05:00:52.748Z,12.20
2022-11-12T05:03:19.404Z,12.20
2022-11-12T05:05:45.847Z,12.20
2022-11-12T05:08:12.382Z,12.20
2022-11-12T05:10:38.858Z,12.24
2022-11-12T05:13:05.406Z,12.28
2022-11-12T05:15:32.049Z,12.22
2022-11-12T05:17:58.585Z,12.30
2022-11-12T05:20:25.148Z,12.30
2022-11-12T05:23:05.798Z,12.30
2022-11-12T05:25:35.472Z,12.30
2022-11-12T05:28:02.145Z,12.30
2022-11-12T05:30:28.701Z,12.30
2022-11-12T05:32:55.149Z,12.30
2022-11-12T05:35:21.671Z,12.30
2022-11-12T05:37:48.166Z,12.30
2022-11-12T05:40:14.759Z,12.30
2022-11-12T05:42:41.296Z,12.30
2022-11-12T05:45:08.648Z,12.30
2022-11-12T05:47:35.164Z,12.30
2022-11-12T05:50:01.677Z,12.30
2022-11-12T05:52:28.191Z,12.30
2022-11-12T05:54:54.729Z,12.30
2022-11-12T05:57:21.273Z,12.30
2022-11-12T05:59:47.744Z,12.32
2022-11-12T06:02:14.483Z,12.30
2022-11-12T06:04:41.136Z,12.36
2022-11-12T06:07:07.697Z,12.40
2022-11-12T06:09:34.255Z,12.40
2022-11-12T06:12:02.029Z,12.40
2022-11-12T06:14:28.618Z,12.40
2022-11-12T06:16:55.119Z,12.38
2022-11-12T06:19:21.587Z,12.40
2022-11-12T06:21:49.389Z,12.40
2022-11-12T06:24:16.025Z,12.40
2022-11-12T06:26:42.487Z,12.40
2022-11-12T06:29:09.097Z,12.40
2022-11-12T06:31:35.616Z,12.40
2022-11-12T06:34:02.677Z,12.40
2022-11-12T06:36:29.222Z,12.40
2022-11-12T06:38:55.664Z,12.40
2022-11-12T06:41:22.241Z,12.42
2022-11-12T06:43:48.859Z,12.44
2022-11-12T06:46:17.339Z,12.50
2022-11-12T06:48:43.920Z,12.50
2022-11-12T06:51:20.290Z,12.50
2022-11-12T06:53:47.953Z,12.50
2022-11-12T06:56:15.556Z,12.50
2022-11-12T06:58:42.513Z,12.54
2022-11-12T07:01:16.350Z,12.60
2022-11-12T07:03:44.202Z,12.60
2022-11-12T07:06:18.624Z,12.60
2022-11-12T07:08:47.028Z,12.60
2022-11-12T07:11:13.603Z,12.66
2022-11-12T07:13:40.202Z,12.70
2022-11-12T07:16:10.262Z,12.70
2022-11-12T07:18:37.571Z,12.70
2022-11-12T07:21:08.546Z,12.80
2022-11-12T07:23:36.930Z,12.80
2022-11-12T07:26:12.929Z,12.80
2022-11-12T07:28:39.802Z,12.86
2022-11-12T07:31:10.682Z,12.90
2022-11-12T07:33:37.820Z,12.90
2022-11-12T07:36:08.747Z,13.00
2022-11-12T07:38:38.957Z,13.00
2022-11-12T07:41:08.426Z,13.00
2022-11-12T07:43:37.243Z,13.04
2022-11-12T07:46:14.453Z,13.10
2022-11-12T07:48:42.279Z,13.10
2022-11-12T07:51:22.125Z,13.10
2022-11-12T07:53:57.787Z,13.14
2022-11-12T07:56:27.758Z,13.20
2022-11-12T07:58:54.477Z,13.20
2022-11-12T08:01:31.566Z,13.20
2022-11-12T08:04:00.374Z,13.26
2022-11-12T08:06:28.903Z,13.30
2022-11-12T08:08:57.861Z,13.30
2022-11-12T08:11:24.607Z,13.30
2022-11-12T08:13:51.534Z,13.30
2022-11-12T08:16:18.516Z,13.34
2022-11-12T08:18:46.453Z,13.40
2022-11-12T08:21:17.461Z,13.42
2022-11-12T08:23:45.551Z,13.50
2022-11-12T08:26:16.923Z,13.50
2022-11-12T08:28:43.759Z,13.50
2022-11-12T08:31:16.814Z,13.50
2022-11-12T08:33:43.735Z,13.60
2022-11-12T08:36:13.789Z,13.60
2022-11-12T08:38:40.909Z,13.60
2022-11-12T08:41:11.189Z,13.60
2022-11-12T08:43:39.758Z,13.60
2022-11-12T08:46:06.808Z,13.60
2022-11-12T08:48:33.985Z,13.60
2022-11-12T08:51:03.558Z,13.60
2022-11-12T08:53:33.823Z,13.60
2022-11-12T08:56:00.483Z,13.60
2022-11-12T08:58:27.262Z,13.70
2022-11-12T09:00:55.422Z,13.70
2022-11-12T09:03:25.468Z,13.74
2022-11-12T09:05:53.029Z,13.74
2022-11-12T09:08:23.760Z,13.74
2022-11-12T09:10:51.733Z,13.80
2022-11-12T09:13:19.354Z,13.80
2022-11-12T09:15:46.773Z,13.80
2022-11-12T09:18:18.055Z,13.80
2022-11-12T09:20:45.737Z,13.90
2022-11-12T09:23:15.460Z,13.80
2022-11-12T09:25:43.056Z,13.80
2022-11-12T09:28:18.176Z,13.80
2022-11-12T09:30:51.206Z,13.80
2022-11-12T09:33:25.803Z,13.80
2022-11-12T09:35:53.974Z,13.80
2022-11-12T09:38:21.749Z,13.80
2022-11-12T09:40:51.243Z,13.70
2022-11-12T09:43:27.058Z,13.70
2022-11-12T09:46:21.914Z,13.70
2022-11-12T09:49:15.636Z,13.70
2022-11-12T09:51:54.854Z,13.70
2022-11-12T09:54:28.463Z,13.70
2022-11-12T09:56:55.475Z,13.80
2022-11-12T09:59:28.509Z,13.80
2022-11-12T10:02:18.801Z,13.74
2022-11-12T10:05:24.819Z,13.70
2022-11-12T10:08:19.610Z,13.70
2022-11-12T10:11:26.444Z,13.60
2022-11-12T10:14:34.447Z,13.60
2022-11-12T10:17:19.675Z,13.60
2022-11-12T10:20:23.421Z,13.60
2022-11-12T10:23:08.496Z,13.60
2022-11-12T10:25:37.138Z,13.60
2022-11-12T10:28:30.093Z,13.60
2022-11-12T10:31:11.055Z,13.60
2022-11-12T10:33:37.585Z,13.60
2022-11-12T10:36:33.006Z,13.58
2022-11-12T10:38:59.602Z,13.50
2022-11-12T10:41:31.207Z,13.50
2022-11-12T10:44:05.266Z,13.50
2022-11-12T10:46:37.130Z,13.50
2022-11-12T10:49:21.088Z,13.50
2022-11-12T10:51:58.814Z,13.50
2022-11-12T10:54:28.383Z,13.50
2022-11-12T10:56:55.817Z,13.50
2022-11-12T10:59:25.238Z,13.50
2022-11-12T11:01:59.085Z,13.50
2022-11-12T11:04:34.602Z,13.50
2022-11-12T11:07:24.008Z,13.50
2022-11-12T11:10:00.121Z,13.50
2022-11-12T11:12:29.483Z,13.50
2022-11-12T11:15:22.020Z,13.50
2022-11-12T11:17:49.148Z,13.56
2022-11-12T11:20:24.133Z,13.52
2022-11-12T11:22:59.277Z,13.50
2022-11-12T11:25:28.639Z,13.52
2022-11-12T11:28:20.319Z,13.50
2022-11-12T11:30:56.217Z,13.50
2022-11-12T11:33:40.517Z,13.50
2022-11-12T11:36:45.152Z,13.50
2022-11-12T11:39:28.369Z,13.50
2022-11-12T11:42:21.330Z,13.50
2022-11-12T11:45:08.779Z,13.50
2022-11-12T11:48:12.912Z,13.50
2022-11-12T11:50:57.100Z,13.46
2022-11-12T11:53:41.287Z,13.50
2022-11-12T11:56:27.990Z,13.50
2022-11-12T11:59:10.577Z,13.50
2022-11-12T12:02:27.068Z,13.50
2022-11-12T12:05:22.802Z,13.50
2022-11-12T12:08:08.307Z,13.50
2022-11-12T12:11:06.965Z,13.50
2022-11-12T12:14:17.907Z,13.60
2022-11-12T12:17:39.947Z,13.60
2022-11-12T12:20:57.805Z,13.60
2022-11-12T12:23:52.564Z,13.60
2022-11-12T12:26:26.714Z,13.60
2022-11-12T12:29:24.241Z,13.60
2022-11-12T12:32:24.298Z,13.60
2022-11-12T12:35:01.729Z,13.60
2022-11-12T12:37:47.643Z,13.60
2022-11-12T12:40:22.865Z,13.60
2022-11-12T12:43:04.344Z,13.60
2022-11-12T12:45:41.796Z,13.60
2022-11-12T12:48:18.983Z,13.60
2022-11-12T12:50:47.933Z,13.60
2022-11-12T12:53:14.378Z,13.60
2022-11-12T12:55:47.294Z,13.60
2022-11-12T12:58:44.397Z,13.60
2022-11-12T13:01:22.921Z,13.70
2022-11-12T13:03:58.362Z,13.70
2022-11-12T13:06:28.666Z,13.70
2022-11-12T13:09:23.812Z,13.70
2022-11-12T13:12:04.469Z,13.70
2022-11-12T13:14:30.872Z,13.70
2022-11-12T13:17:06.457Z,13.70
2022-11-12T13:19:39.335Z,13.70
2022-11-12T13:22:32.220Z,13.70
2022-11-12T13:25:08.001Z,13.68
2022-11-12T13:28:06.513Z,13.70
2022-11-12T13:30:33.279Z,13.70
2022-11-12T13:33:03.039Z,13.70
2022-11-12T13:35:39.328Z,13.70
2022-11-12T13:38:08.567Z,13.80
2022-11-12T13:41:12.048Z,13.80
2022-11-12T13:43:42.775Z,13.80
2022-11-12T13:46:10.397Z,13.70
2022-11-12T13:48:55.980Z,13.70
2022-11-12T13:51:51.555Z,13.70
2022-11-12T13:54:29.051Z,13.70
2022-11-12T13:56:55.878Z,13.60
2022-11-12T13:59:25.430Z,13.60
2022-11-12T14:01:53.367Z,13.60
2022-11-12T14:04:23.943Z,13.58
2022-11-12T14:06:57.998Z,13.60
2022-11-12T14:09:50.355Z,13.60
2022-11-12T14:12:49.054Z,13.58
2022-11-12T14:15:40.735Z,13.60
2022-11-12T14:19:02.438Z,13.60
2022-11-12T14:21:29.449Z,13.60
2022-11-12T14:23:56.086Z,13.60
2022-11-12T14:26:40.974Z,13.62
2022-11-12T14:29:16.793Z,13.66
2022-11-12T14:31:45.599Z,13.70
2022-11-12T14:34:27.733Z,13.70
2022-11-12T14:36:55.576Z,13.70
2022-11-12T14:39:26.699Z,13.70
2022-11-12T14:41:57.582Z,13.70
2022-11-12T14:44:34.059Z,13.70
2022-11-12T14:47:02.051Z,13.70
2022-11-12T14:49:45.798Z,13.70
2022-11-12T14:52:20.064Z,13.70
2022-11-12T14:54:55.427Z,13.68
2022-11-12T14:57:31.920Z,13.62
2022-11-12T14:59:58.428Z,13.62
2022-11-12T15:02:51.265Z,13.62
2022-11-12T15:05:22.859Z,13.70
2022-11-12T15:07:59.645Z,13.70
2022-11-12T15:10:44.374Z,13.70
2022-11-12T15:13:18.355Z,13.70
2022-11-12T15:16:11.280Z,13.70
2022-11-12T15:18:39.364Z,13.70
2022-11-12T15:21:11.993Z,13.70
2022-11-12T15:23:51.721Z,13.70
2022-11-12T15:26:40.197Z,13.70
2022-11-12T15:29:09.750Z,13.70
2022-11-12T15:31:52.405Z,13.70
2022-11-12T15:34:47.104Z,13.66
2022-11-12T15:37:16.656Z,13.60
2022-11-12T15:39:53.660Z,13.60
2022-11-12T15:42:53.073Z,13.60
2022-11-12T15:45:21.614Z,13.60
2022-11-12T15:47:48.245Z,13.60
2022-11-12T15:50:17.657Z,13.60
2022-11-12T15:55:44.006Z,13.70
2022-11-12T15:58:19.714Z,13.70
2022-11-12T16:00:46.365Z,13.70
2022-11-12T16:03:18.425Z,13.72
2022-11-12T16:05:46.154Z,13.70
2022-11-12T16:08:12.826Z,13.72
2022-11-12T16:10:42.572Z,13.78
2022-11-12T16:13:35.835Z,13.74
2022-11-12T16:16:07.117Z,13.80
2022-11-12T16:18:33.639Z,13.80
2022-11-12T16:21:00.285Z,13.80
2022-11-12T16:23:26.971Z,13.80
2022-11-12T16:25:53.767Z,13.76
2022-11-12T16:28:20.244Z,13.80
2022-11-12T16:30:47.944Z,13.80
2022-11-12T16:33:14.452Z,13.80
2022-11-12T16:35:41.349Z,13.80
2022-11-12T16:38:17.083Z,13.80
2022-11-12T16:40:45.183Z,13.80
2022-11-12T16:43:11.630Z,13.80
2022-11-12T16:45:42.208Z,13.80
2022-11-12T16:48:21.544Z,13.80
2022-11-12T16:50:48.349Z,13.80
2022-11-12T16:53:14.836Z,13.80
2022-11-12T16:55:41.973Z,13.90
2022-11-12T16:58:15.051Z,13.90
2022-11-12T17:00:46.122Z,13.90
2022-11-12T17:03:13.573Z,13.90
2022-11-12T17:05:40.162Z,13.90
2022-11-12T17:08:10.108Z,13.90
2022-11-12T17:10:36.648Z,13.90
2022-11-12T17:13:03.161Z,13.90
2022-11-12T17:15:29.628Z,13.90
2022-11-12T17:17:56.146Z,13.90
2022-11-12T17:20:22.793Z,13.90
2022-11-12T17:22:49.526Z,13.90
2022-11-12T17:25:16.087Z,13.90
2022-11-12T17:27:42.577Z,13.90
2022-11-12T17:30:11.233Z,13.90
2022-11-12T17:32:37.763Z,13.90
2022-11-12T17:35:04.998Z,13.90
2022-11-12T17:37:31.464Z,13.98
2022-11-12T17:39:58.134Z,13.94
2022-11-12T17:42:24.632Z,13.90
2022-11-12T17:44:51.149Z,14.00
2022-11-12T17:47:17.813Z,14.00
2022-11-12T17:49:44.350Z,14.10
2022-11-12T17:52:10.855Z,14.10
2022-11-12T17:54:37.919Z,14.10
2022-11-12T17:57:04.535Z,14.10
2022-11-12T17:59:31.077Z,14.00
2022-11-12T18:01:57.647Z,14.00
2022-11-12T18:04:25.741Z,14.00
2022-11-12T18:06:54.331Z,14.00
2022-11-12T18:09:21.197Z,14.00
2022-11-12T18:11:55.959Z,13.96
2022-11-12T18:14:22.762Z,13.90
2022-11-12T18:16:49.616Z,13.92
2022-11-12T18:19:16.279Z,14.00
2022-11-12T18:21:42.950Z,14.00
2022-11-12T18:24:15.802Z,13.90
2022-11-12T18:26:43.690Z,14.00
2022-11-12T18:29:12.072Z,14.00
2022-11-12T18:31:40.033Z,13.90
2022-11-12T18:34:10.583Z,13.90
2022-11-12T18:36:37.291Z,13.82
2022-11-12T18:39:05.058Z,13.86
2022-11-12T18:41:33.314Z,13.80
2022-11-12T18:44:00.893Z,13.80
2022-11-12T18:46:27.523Z,13.72
2022-11-12T18:48:54.074Z,13.70
2022-11-12T18:51:20.714Z,13.80
2022-11-12T18:53:47.693Z,13.90
2022-11-12T18:56:18.948Z,13.80
2022-11-12T18:58:47.175Z,13.72
2022-11-12T19:01:20.177Z,13.70
2022-11-12T19:03:47.636Z,13.70
2022-11-12T19:06:14.461Z,13.70
2022-11-12T19:08:41.500Z,13.70
2022-11-12T19:11:14.803Z,13.70
2022-11-12T19:13:42.180Z,13.70
2022-11-12T19:16:16.680Z,13.72
2022-11-12T19:18:44.327Z,13.80
2022-11-12T19:21:16.109Z,13.80
2022-11-12T19:23:43.155Z,13.90
2022-11-12T19:26:15.968Z,13.84
2022-11-12T19:28:43.909Z,13.80
2022-11-12T19:31:19.761Z,13.80
2022-11-12T19:33:47.422Z,13.72
2022-11-12T19:36:21.561Z,13.70
2022-11-12T19:38:57.727Z,13.70
2022-11-12T19:41:25.111Z,13.68
2022-11-12T19:43:52.104Z,13.60
2022-11-12T19:46:19.140Z,13.60
2022-11-12T19:48:45.691Z,13.60
2022-11-12T19:51:13.203Z,13.54
2022-11-12T19:53:45.755Z,13.50
2022-11-12T19:56:20.441Z,13.50
2022-11-12T19:58:48.790Z,13.50
2022-11-12T20:01:18.475Z,13.50
2022-11-12T20:03:45.686Z,13.50
2022-11-12T20:06:17.540Z,13.50
2022-11-12T20:08:46.377Z,13.50
2022-11-12T20:11:15.615Z,13.50
2022-11-12T20:13:42.145Z,13.50
2022-11-12T20:16:12.996Z,13.50
2022-11-12T20:18:39.730Z,13.50
2022-11-12T20:21:07.259Z,13.50
2022-11-12T20:23:35.105Z,13.50
2022-11-12T20:26:14.220Z,13.50
2022-11-12T20:28:42.896Z,13.50
2022-11-12T20:31:19.457Z,13.48
2022-11-12T20:33:48.674Z,13.50
2022-11-12T20:36:21.025Z,13.50
2022-11-12T20:38:49.673Z,13.50
2022-11-12T20:41:20.562Z,13.50
2022-11-12T20:43:51.161Z,13.50
2022-11-12T20:46:17.776Z,13.50
2022-11-12T20:48:44.283Z,13.50
2022-11-12T20:51:24.162Z,13.50
2022-11-12T20:53:58.724Z,13.50
2022-11-12T20:56:29.630Z,13.50
2022-11-12T20:58:58.366Z,13.50
2022-11-12T21:01:27.636Z,13.50
2022-11-12T21:03:54.928Z,13.50
2022-11-12T21:06:25.705Z,13.50
2022-11-12T21:08:52.475Z,13.50
2022-11-12T21:11:22.000Z,13.40
2022-11-12T21:13:49.286Z,13.40
2022-11-12T21:16:16.283Z,13.40
2022-11-12T21:18:43.257Z,13.40
2022-11-12T21:21:17.747Z,13.40
2022-11-12T21:23:45.041Z,13.40
2022-11-12T21:26:20.509Z,13.40
2022-11-12T21:28:52.729Z,13.40
2022-11-12T21:31:26.717Z,13.42
2022-11-12T21:34:03.745Z,13.50
2022-11-12T21:36:33.474Z,13.50
2022-11-12T21:38:59.945Z,13.50
2022-11-12T21:41:30.605Z,13.50
2022-11-12T21:43:57.435Z,13.40
2022-11-12T21:46:30.399Z,13.40
2022-11-12T21:48:57.757Z,13.40
2022-11-12T21:51:30.043Z,13.38
2022-11-12T21:54:00.121Z,13.34
2022-11-12T21:56:28.162Z,13.30
2022-11-12T21:58:59.840Z,13.30
2022-11-12T22:01:34.294Z,13.34
2022-11-12T22:04:06.848Z,13.40
2022-11-12T22:06:37.530Z,13.40
2022-11-12T22:09:05.663Z,13.40
2022-11-12T22:11:32.365Z,13.30
2022-11-12T22:13:58.981Z,13.30
2022-11-12T22:16:29.114Z,13.30
2022-11-12T22:18:58.103Z,13.30
2022-11-12T22:21:29.105Z,13.30
2022-11-12T22:23:57.172Z,13.30
2022-11-12T22:26:27.242Z,13.30
2022-11-12T22:28:56.735Z,13.30
2022-11-12T22:31:30.423Z,13.30
2022-11-12T22:33:59.890Z,13.30
2022-11-12T22:36:30.252Z,13.30
2022-11-12T22:38:57.437Z,13.30
2022-11-12T22:41:31.677Z,13.30
2022-11-12T22:44:01.628Z,13.30
2022-11-12T22:46:34.947Z,13.30
2022-11-12T22:49:03.882Z,13.38
2022-11-12T22:51:33.349Z,13.36
2022-11-12T22:54:05.218Z,13.30
2022-11-12T22:56:35.271Z,13.30
2022-11-12T22:59:04.240Z,13.30
2022-11-12T23:01:34.636Z,13.30
2022-11-12T23:04:05.590Z,13.30
2022-11-12T23:06:33.155Z,13.30
2022-11-12T23:09:00.842Z,13.30
2022-11-12T23:11:27.759Z,13.30
2022-11-12T23:13:55.908Z,13.40
2022-11-12T23:16:29.513Z,13.40
2022-11-12T23:18:57.016Z,13.40
2022-11-12T23:21:27.652Z,13.40
2022-11-12T23:23:57.624Z,13.40
2022-11-12T23:26:33.228Z,13.40
2022-11-12T23:29:01.202Z,13.40
2022-11-12T23:31:31.602Z,13.40
2022-11-12T23:33:59.692Z,13.40
2022-11-12T23:36:27.365Z,13.30
2022-11-12T23:38:55.888Z,13.30
2022-11-12T23:41:25.356Z,13.30
2022-11-12T23:43:54.092Z,13.30
2022-11-12T23:46:21.357Z,13.30
2022-11-12T23:48:49.259Z,13.30
2022-11-12T23:51:20.148Z,13.30
2022-11-12T23:53:48.332Z,13.30
2022-11-12T23:56:18.463Z,13.28
2022-11-12T23:58:45.185Z,13.28
